Time,TemperatureF,DewpointF,PressureIn,WindDirection,WindDirectionDegrees,WindSpeedMPH,WindSpeedGustMPH,Humidity,HourlyPrecipIn,Conditions,Clouds,dailyrainin,SoftwareType,DateUTC
2013-02-04 00:03:00,33.8,25.7,29.70,South,181,0.0,0.0,72,0.00,,,0.00,WeatherCatV1.13B119,2013-02-04 06:03:00,
2013-02-04 00:08:00,33.5,25.8,29.70,South,181,0.0,0.0,73,0.00,,,0.00,WeatherCatV1.13B119,2013-02-04 06:08:00,
2013-02-04 00:13:00,33.2,25.5,29.70,South,181,0.0,0.0,73,0.00,,,0.00,WeatherCatV1.13B119,2013-02-04 06:13:00,
2013-02-04 00:18:00,33.1,25.7,29.70,South,181,0.0,1.0,74,0.00,,,0.00,WeatherCatV1.13B119,2013-02-04 06:18:00,
2013-02-04 00:23:00,32.8,25.8,29.70,South,181,0.0,0.0,75,0.00,,,0.00,WeatherCatV1.13B119,2013-02-04 06:23:00,
2013-02-04 00:28:00,32.8,25.8,29.70,South,181,0.0,0.0,75,0.00,,,0.00,WeatherCatV1.13B119,2013-02-04 06:28:00,
2013-02-04 00:33:00,32.8,26.1,29.69,South,181,0.0,0.0,76,0.00,,,0.00,WeatherCatV1.13B119,2013-02-04 06:33:00,
2013-02-04 00:38:00,32.7,26.0,29.69,South,181,0.0,0.0,76,0.00,,,0.00,WeatherCatV1.13B119,2013-02-04 06:38:00,
2013-02-04 00:43:00,32.7,26.0,29.69,South,181,0.0,0.0,76,0.00,,,0.00,WeatherCatV1.13B119,2013-02-04 06:43:00,
2013-02-04 00:48:00,32.7,26.3,29.69,South,181,0.0,0.0,77,0.00,,,0.00,WeatherCatV1.13B119,2013-02-04 06:48:00,
2013-02-04 00:53:00,32.7,26.3,29.69,South,181,0.0,0.0,77,0.00,,,0.00,WeatherCatV1.13B119,2013-02-04 06:53:00,
2013-02-04 00:58:00,32.7,26.3,29.69,South,181,0.0,0.0,77,0.00,,,0.00,WeatherCatV1.13B119,2013-02-04 06:58:00,
2013-02-04 01:03:00,32.7,26.3,29.69,South,181,0.0,0.0,77,0.00,,,0.00,WeatherCatV1.13B119,2013-02-04 07:03:00,
2013-02-04 01:08:00,32.7,26.3,29.69,South,181,0.0,0.0,77,0.00,,,0.00,WeatherCatV1.13B119,2013-02-04 07:08:00,
2013-02-04 01:13:00,32.8,26.4,29.69,South,181,0.0,0.0,77,0.00,,,0.00,WeatherCatV1.13B119,2013-02-04 07:13:00,
2013-02-04 01:18:00,32.7,26.3,29.69,South,181,0.0,0.0,77,0.00,,,0.00,WeatherCatV1.13B119,2013-02-04 07:18:00,
2013-02-04 01:23:00,32.7,26.3,29.69,South,181,0.0,0.0,77,0.00,,,0.00,WeatherCatV1.13B119,2013-02-04 07:23:00,
2013-02-04 01:28:00,32.7,26.0,29.69,South,181,0.0,0.0,76,0.00,,,0.00,WeatherCatV1.13B119,2013-02-04 07:28:00,
2013-02-04 01:33:00,32.8,26.4,29.68,South,181,0.0,0.0,77,0.00,,,0.00,WeatherCatV1.13B119,2013-02-04 07:33:00,
2013-02-04 01:38:00,32.9,26.2,29.68,South,181,0.0,0.0,76,0.00,,,0.00,WeatherCatV1.13B119,2013-02-04 07:38:00,
2013-02-04 01:43:00,32.9,26.2,29.68,South,181,0.0,0.0,76,0.00,,,0.00,WeatherCatV1.13B119,2013-02-04 07:43:00,
2013-02-04 01:48:00,32.8,26.1,29.68,South,181,0.0,0.0,76,0.00,,,0.00,WeatherCatV1.13B119,2013-02-04 07:48:00,
2013-02-04 01:53:00,32.7,26.0,29.68,South,181,0.0,0.0,76,0.00,,,0.00,WeatherCatV1.13B119,2013-02-04 07:53:00,
2013-02-04 01:58:00,32.7,26.3,29.68,South,181,0.0,0.0,77,0.00,,,0.00,WeatherCatV1.13B119,2013-02-04 07:58:00,
2013-02-04 02:03:00,32.7,26.3,29.68,South,181,0.0,0.0,77,0.00,,,0.00,WeatherCatV1.13B119,2013-02-04 08:03:00,
2013-02-04 02:08:00,32.8,26.4,29.68,South,181,0.0,1.0,77,0.00,,,0.00,WeatherCatV1.13B119,2013-02-04 08:08:00,
2013-02-04 02:13:00,32.9,26.2,29.68,South,181,0.0,1.0,76,0.00,,,0.00,WeatherCatV1.13B119,2013-02-04 08:13:00,
2013-02-04 02:18:00,32.8,26.1,29.68,South,181,0.0,0.0,76,0.00,,,0.00,WeatherCatV1.13B119,2013-02-04 08:18:00,
2013-02-04 02:23:00,32.7,26.3,29.68,South,181,1.0,1.0,77,0.00,,,0.00,WeatherCatV1.13B119,2013-02-04 08:23:00,
2013-02-04 02:28:00,32.7,26.3,29.68,South,181,1.0,2.0,77,0.00,,,0.00,WeatherCatV1.13B119,2013-02-04 08:28:00,
2013-02-04 02:33:00,32.5,26.1,29.68,South,181,0.0,0.0,77,0.00,,,0.00,WeatherCatV1.13B119,2013-02-04 08:33:00,
2013-02-04 02:38:00,32.4,26.3,29.68,South,181,0.0,0.0,78,0.00,,,0.00,WeatherCatV1.13B119,2013-02-04 08:38:00,
2013-02-04 02:43:00,32.7,26.9,29.68,South,181,1.0,2.0,79,0.00,,,0.00,WeatherCatV1.13B119,2013-02-04 08:43:00,
2013-02-04 02:48:00,33.1,27.0,29.68,South,190,0.0,0.0,78,0.00,,,0.00,WeatherCatV1.13B119,2013-02-04 08:48:00,
2013-02-04 02:53:00,33.2,26.5,29.68,South,188,0.0,0.0,76,0.00,,,0.00,WeatherCatV1.13B119,2013-02-04 08:53:00,
2013-02-04 02:58:00,32.9,26.2,29.68,South,188,0.0,1.0,76,0.00,,,0.00,WeatherCatV1.13B119,2013-02-04 08:58:00,
2013-02-04 03:03:00,32.4,25.7,29.69,South,188,0.0,3.0,76,0.00,,,0.00,WeatherCatV1.13B119,2013-02-04 09:03:00,
2013-02-04 03:08:00,31.8,25.7,29.69,South,188,0.0,0.0,78,0.00,,,0.00,WeatherCatV1.13B119,2013-02-04 09:08:00,
2013-02-04 03:13:00,31.3,25.6,29.69,South,188,1.0,2.0,79,0.00,,,0.00,WeatherCatV1.13B119,2013-02-04 09:13:00,
2013-02-04 03:18:00,31.3,25.9,29.70,South,188,0.0,1.0,80,0.00,,,0.00,WeatherCatV1.13B119,2013-02-04 09:18:00,
2013-02-04 03:23:00,31.5,26.4,29.70,South,188,0.0,1.0,81,0.00,,,0.00,WeatherCatV1.13B119,2013-02-04 09:23:00,
2013-02-04 03:28:00,31.8,26.6,29.70,South,188,0.0,1.0,81,0.00,,,0.00,WeatherCatV1.13B119,2013-02-04 09:28:00,
2013-02-04 03:33:00,32.1,26.9,29.69,South,188,0.0,0.0,81,0.00,,,0.00,WeatherCatV1.13B119,2013-02-04 09:33:00,
2013-02-04 03:38:00,32.1,26.6,29.69,South,188,0.0,0.0,80,0.00,,,0.00,WeatherCatV1.13B119,2013-02-04 09:38:00,
2013-02-04 03:43:00,31.9,26.4,29.69,South,188,0.0,0.0,80,0.00,,,0.00,WeatherCatV1.13B119,2013-02-04 09:43:00,
2013-02-04 03:48:00,31.6,25.8,29.70,South,188,0.0,1.0,79,0.00,,,0.00,WeatherCatV1.13B119,2013-02-04 09:48:00,
2013-02-04 03:53:00,31.5,26.4,29.70,West,276,2.0,4.0,81,0.00,,,0.00,WeatherCatV1.13B119,2013-02-04 09:53:00,
2013-02-04 03:58:00,31.8,26.6,29.70,West,278,1.0,3.0,81,0.00,,,0.00,WeatherCatV1.13B119,2013-02-04 09:58:00,
2013-02-04 04:03:00,32.2,27.0,29.71,West,279,0.0,2.0,81,0.00,,,0.00,WeatherCatV1.13B119,2013-02-04 10:03:00,
2013-02-04 04:08:00,32.5,27.0,29.71,WNW,284,0.0,3.0,80,0.00,,,0.00,WeatherCatV1.13B119,2013-02-04 10:08:00,
2013-02-04 04:13:00,32.8,27.3,29.71,WNW,300,0.0,5.0,80,0.00,,,0.00,WeatherCatV1.13B119,2013-02-04 10:13:00,
2013-02-04 04:18:00,33.1,27.3,29.72,WNW,302,0.0,2.0,79,0.00,,,0.00,WeatherCatV1.13B119,2013-02-04 10:18:00,
2013-02-04 04:23:00,33.4,27.6,29.72,WNW,302,2.0,3.0,79,0.00,,,0.00,WeatherCatV1.13B119,2013-02-04 10:23:00,
2013-02-04 04:28:00,33.5,27.7,29.72,NNW,330,2.0,7.0,79,0.00,,,0.00,WeatherCatV1.13B119,2013-02-04 10:28:00,
2013-02-04 04:33:00,33.8,27.7,29.72,NNW,338,0.0,2.0,78,0.00,,,0.00,WeatherCatV1.13B119,2013-02-04 10:33:00,
2013-02-04 04:38:00,33.8,28.0,29.72,NW,321,1.0,10.0,79,0.00,,,0.00,WeatherCatV1.13B119,2013-02-04 10:38:00,
2013-02-04 04:43:00,33.8,28.0,29.72,NW,319,2.0,5.0,79,0.00,,,0.00,WeatherCatV1.13B119,2013-02-04 10:43:00,
2013-02-04 04:48:00,33.4,27.6,29.74,NW,325,5.0,7.0,79,0.00,,,0.00,WeatherCatV1.13B119,2013-02-04 10:48:00,
2013-02-04 04:53:00,32.7,27.2,29.74,NNW,327,3.0,4.0,80,0.00,,,0.00,WeatherCatV1.13B119,2013-02-04 10:53:00,
2013-02-04 04:58:00,32.1,26.9,29.74,NW,321,0.0,4.0,81,0.00,,,0.00,WeatherCatV1.13B119,2013-02-04 10:58:00,
2013-02-04 05:03:00,31.6,26.5,29.75,NW,317,0.0,3.0,81,0.00,,,0.00,WeatherCatV1.13B119,2013-02-04 11:03:00,
2013-02-04 05:08:00,31.0,26.2,29.75,NW,317,3.0,5.0,82,0.00,,,0.00,WeatherCatV1.13B119,2013-02-04 11:08:00,
2013-02-04 05:13:00,30.6,25.8,29.75,NW,317,5.0,18.0,82,0.00,,,0.00,WeatherCatV1.13B119,2013-02-04 11:13:00,
2013-02-04 05:18:00,30.1,25.3,29.77,NNW,345,10.0,14.0,82,0.00,,,0.00,WeatherCatV1.13B119,2013-02-04 11:18:00,
2013-02-04 05:23:00,29.5,25.0,29.77,North,350,8.0,18.0,83,0.00,,,0.00,WeatherCatV1.13B119,2013-02-04 11:23:00,
2013-02-04 05:28:00,29.0,24.5,29.77,NNE,19,4.0,12.0,83,0.00,,,0.00,WeatherCatV1.13B119,2013-02-04 11:28:00,
2013-02-04 05:33:00,28.5,24.3,29.79,NNW,334,2.0,10.0,84,0.00,,,0.00,WeatherCatV1.13B119,2013-02-04 11:33:00,
2013-02-04 05:38:00,28.1,23.9,29.79,NNW,328,8.0,12.0,84,0.00,,,0.00,WeatherCatV1.13B119,2013-02-04 11:38:00,
2013-02-04 05:43:00,27.6,23.4,29.79,NW,318,6.0,10.0,84,0.00,,,0.00,WeatherCatV1.13B119,2013-02-04 11:43:00,
2013-02-04 05:48:00,27.2,23.0,29.80,NW,320,3.0,6.0,84,0.00,,,0.00,WeatherCatV1.13B119,2013-02-04 11:48:00,
2013-02-04 05:53:00,26.7,22.8,29.80,NW,326,5.0,9.0,85,0.00,,,0.00,WeatherCatV1.13B119,2013-02-04 11:53:00,
2013-02-04 05:58:00,26.4,22.5,29.80,NNW,332,10.0,14.0,85,0.00,,,0.00,WeatherCatV1.13B119,2013-02-04 11:58:00,
2013-02-04 06:03:00,26.1,22.5,29.82,NNW,336,6.0,14.0,86,0.00,,,0.00,WeatherCatV1.13B119,2013-02-04 12:03:00,
2013-02-04 06:08:00,25.8,22.2,29.82,North,355,6.0,11.0,86,0.00,,,0.00,WeatherCatV1.13B119,2013-02-04 12:08:00,
2013-02-04 06:13:00,25.4,21.5,29.82,NNW,334,4.0,12.0,85,0.00,,,0.00,WeatherCatV1.13B119,2013-02-04 12:13:00,
2013-02-04 06:18:00,25.0,21.4,29.84,NW,311,12.0,14.0,86,0.00,,,0.00,WeatherCatV1.13B119,2013-02-04 12:18:00,
2013-02-04 06:23:00,24.5,20.9,29.84,NNW,334,12.0,14.0,86,0.00,,,0.00,WeatherCatV1.13B119,2013-02-04 12:23:00,
2013-02-04 06:28:00,24.1,20.5,29.84,NNW,331,14.0,16.0,86,0.00,,,0.00,WeatherCatV1.13B119,2013-02-04 12:28:00,
2013-02-04 06:33:00,23.9,20.3,29.85,NW,307,5.0,12.0,86,0.00,,,0.00,WeatherCatV1.13B119,2013-02-04 12:33:00,
2013-02-04 06:38:00,23.8,20.2,29.85,NNW,338,19.0,19.0,86,0.00,,,0.00,WeatherCatV1.13B119,2013-02-04 12:38:00,
2013-02-04 06:43:00,23.5,19.9,29.85,NW,325,11.0,12.0,86,0.00,,,0.00,WeatherCatV1.13B119,2013-02-04 12:43:00,
2013-02-04 06:48:00,23.3,19.5,29.86,NW,315,3.0,18.0,85,0.00,,,0.00,WeatherCatV1.13B119,2013-02-04 12:48:00,
2013-02-04 06:53:00,23.2,19.6,29.86,NNW,331,11.0,15.0,86,0.00,,,0.00,WeatherCatV1.13B119,2013-02-04 12:53:00,
2013-02-04 06:58:00,23.2,19.6,29.86,NNW,345,9.0,17.0,86,0.00,,,0.00,WeatherCatV1.13B119,2013-02-04 12:58:00,
2013-02-04 07:03:00,23.2,19.6,29.87,North,10,9.0,16.0,86,0.00,,,0.00,WeatherCatV1.13B119,2013-02-04 13:03:00,
2013-02-04 07:08:00,23.2,19.6,29.87,NNW,334,7.0,14.0,86,0.00,,,0.00,WeatherCatV1.13B119,2013-02-04 13:08:00,
2013-02-04 07:13:00,23.2,19.6,29.87,NNW,342,10.0,11.0,86,0.00,,,0.00,WeatherCatV1.13B119,2013-02-04 13:13:00,
2013-02-04 07:18:00,23.3,20.0,29.88,NW,323,4.0,14.0,87,0.00,,,0.00,WeatherCatV1.13B119,2013-02-04 13:18:00,
2013-02-04 07:23:00,23.3,20.0,29.88,NNW,327,13.0,13.0,87,0.00,,,0.00,WeatherCatV1.13B119,2013-02-04 13:23:00,
2013-02-04 07:28:00,23.3,20.0,29.88,NNW,333,9.0,17.0,87,0.00,,,0.00,WeatherCatV1.13B119,2013-02-04 13:28:00,
2013-02-04 07:33:00,23.5,20.2,29.88,NNW,338,7.0,13.0,87,0.00,,,0.00,WeatherCatV1.13B119,2013-02-04 13:33:00,
2013-02-04 07:38:00,23.5,20.2,29.88,NNW,336,4.0,10.0,87,0.00,,,0.00,WeatherCatV1.13B119,2013-02-04 13:38:00,
2013-02-04 07:43:00,23.5,20.2,29.88,NNW,331,12.0,15.0,87,0.00,,,0.00,WeatherCatV1.13B119,2013-02-04 13:43:00,
2013-02-04 07:48:00,23.5,20.2,29.88,North,5,6.0,13.0,87,0.00,,,0.00,WeatherCatV1.13B119,2013-02-04 13:48:00,
2013-02-04 07:53:00,23.6,20.3,29.88,NNW,336,5.0,14.0,87,0.00,,,0.00,WeatherCatV1.13B119,2013-02-04 13:53:00,
2013-02-04 07:58:00,23.6,20.3,29.88,NNW,333,7.0,11.0,87,0.00,,,0.00,WeatherCatV1.13B119,2013-02-04 13:58:00,
2013-02-04 08:03:00,23.6,20.3,29.89,NNW,347,4.0,10.0,87,0.00,,,0.00,WeatherCatV1.13B119,2013-02-04 14:03:00,
2013-02-04 08:08:00,23.6,20.3,29.89,NNW,346,4.0,11.0,87,0.00,,,0.00,WeatherCatV1.13B119,2013-02-04 14:08:00,
2013-02-04 08:13:00,23.6,20.0,29.89,NW,321,4.0,12.0,86,0.00,,,0.00,WeatherCatV1.13B119,2013-02-04 14:13:00,
2013-02-04 08:18:00,23.6,20.0,29.90,North,350,9.0,13.0,86,0.00,,,0.00,WeatherCatV1.13B119,2013-02-04 14:18:00,
2013-02-04 08:23:00,23.8,20.2,29.90,NNW,340,4.0,5.0,86,0.00,,,0.00,WeatherCatV1.13B119,2013-02-04 14:23:00,
2013-02-04 08:28:00,23.8,20.2,29.90,NNW,342,1.0,9.0,86,0.00,,,0.00,WeatherCatV1.13B119,2013-02-04 14:28:00,
2013-02-04 08:33:00,23.9,20.3,29.90,NW,323,2.0,10.0,86,0.00,,,0.00,WeatherCatV1.13B119,2013-02-04 14:33:00,
2013-02-04 08:38:00,23.9,20.1,29.90,NNW,342,3.0,10.0,85,0.00,,,0.00,WeatherCatV1.13B119,2013-02-04 14:38:00,
2013-02-04 08:43:00,24.1,20.3,29.90,NNW,336,4.0,10.0,85,0.00,,,0.00,WeatherCatV1.13B119,2013-02-04 14:43:00,
2013-02-04 08:48:00,24.2,20.4,29.91,NNW,338,2.0,10.0,85,0.00,,,0.00,WeatherCatV1.13B119,2013-02-04 14:48:00,
2013-02-04 08:53:00,24.2,20.4,29.91,NNW,344,3.0,12.0,85,0.00,,,0.00,WeatherCatV1.13B119,2013-02-04 14:53:00,
2013-02-04 08:58:00,24.4,20.3,29.91,NNW,335,6.0,10.0,84,0.00,,,0.00,WeatherCatV1.13B119,2013-02-04 14:58:00,
2013-02-04 09:03:00,24.4,20.3,29.91,NNW,348,6.0,10.0,84,0.00,,,0.00,WeatherCatV1.13B119,2013-02-04 15:03:00,
2013-02-04 09:08:00,24.4,20.3,29.91,NNW,346,5.0,11.0,84,0.00,,,0.00,WeatherCatV1.13B119,2013-02-04 15:08:00,
2013-02-04 09:13:00,24.5,20.1,29.91,NNW,330,2.0,10.0,83,0.00,,,0.00,WeatherCatV1.13B119,2013-02-04 15:13:00,
2013-02-04 09:18:00,24.5,20.1,29.91,NNW,346,3.0,11.0,83,0.00,,,0.00,WeatherCatV1.13B119,2013-02-04 15:18:00,
2013-02-04 09:23:00,24.5,19.8,29.91,NNW,339,6.0,9.0,82,0.00,,,0.00,WeatherCatV1.13B119,2013-02-04 15:23:00,
2013-02-04 09:28:00,24.5,19.8,29.91,NW,323,2.0,10.0,82,0.00,,,0.00,WeatherCatV1.13B119,2013-02-04 15:28:00,
2013-02-04 09:33:00,24.5,19.8,29.93,NNW,340,1.0,12.0,82,0.00,,,0.00,WeatherCatV1.13B119,2013-02-04 15:33:00,
2013-02-04 09:38:00,24.5,19.8,29.93,NNW,348,9.0,9.0,82,0.00,,,0.00,WeatherCatV1.13B119,2013-02-04 15:38:00,
2013-02-04 09:43:00,24.7,20.0,29.93,NNW,346,4.0,9.0,82,0.00,,,0.00,WeatherCatV1.13B119,2013-02-04 15:43:00,
2013-02-04 09:48:00,24.8,19.8,29.93,NNW,337,7.0,7.0,81,0.00,,,0.00,WeatherCatV1.13B119,2013-02-04 15:48:00,
2013-02-04 09:53:00,24.8,19.8,29.93,NNW,333,10.0,10.0,81,0.00,,,0.00,WeatherCatV1.13B119,2013-02-04 15:53:00,
2013-02-04 09:58:00,24.8,19.5,29.93,NNW,342,7.0,7.0,80,0.00,,,0.00,WeatherCatV1.13B119,2013-02-04 15:58:00,
2013-02-04 10:03:00,24.8,19.5,29.94,NNW,335,2.0,7.0,80,0.00,,,0.00,WeatherCatV1.13B119,2013-02-04 16:03:00,
2013-02-04 10:08:00,24.8,19.2,29.94,NNW,342,7.0,11.0,79,0.00,,,0.00,WeatherCatV1.13B119,2013-02-04 16:08:00,
2013-02-04 10:13:00,24.7,19.1,29.94,North,0,5.0,5.0,79,0.00,,,0.00,WeatherCatV1.13B119,2013-02-04 16:13:00,
2013-02-04 10:18:00,24.8,19.2,29.95,North,355,1.0,9.0,79,0.00,,,0.00,WeatherCatV1.13B119,2013-02-04 16:18:00,
2013-02-04 10:23:00,24.8,19.2,29.95,NW,322,0.0,3.0,79,0.00,,,0.00,WeatherCatV1.13B119,2013-02-04 16:23:00,
2013-02-04 10:28:00,25.1,19.5,29.95,NW,323,1.0,5.0,79,0.00,,,0.00,WeatherCatV1.13B119,2013-02-04 16:28:00,
2013-02-04 10:33:00,25.1,19.2,29.95,NNW,331,2.0,7.0,78,0.00,,,0.00,WeatherCatV1.13B119,2013-02-04 16:33:00,
2013-02-04 10:38:00,25.1,18.9,29.95,NNW,327,2.0,4.0,77,0.00,,,0.00,WeatherCatV1.13B119,2013-02-04 16:38:00,
2013-02-04 10:43:00,25.1,18.9,29.95,NW,323,3.0,5.0,77,0.00,,,0.00,WeatherCatV1.13B119,2013-02-04 16:43:00,
2013-02-04 10:48:00,25.1,18.9,29.96,NNW,343,4.0,5.0,77,0.00,,,0.00,WeatherCatV1.13B119,2013-02-04 16:48:00,
2013-02-04 10:53:00,25.1,18.9,29.96,NNW,334,11.0,11.0,77,0.00,,,0.00,WeatherCatV1.13B119,2013-02-04 16:53:00,
2013-02-04 10:58:00,25.3,19.1,29.96,North,0,2.0,6.0,77,0.00,,,0.00,WeatherCatV1.13B119,2013-02-04 16:58:00,
2013-02-04 11:03:00,25.3,18.8,29.96,NE,41,4.0,5.0,76,0.00,,,0.00,WeatherCatV1.13B119,2013-02-04 17:03:00,
2013-02-04 11:08:00,25.6,19.4,29.96,NNE,26,4.0,7.0,77,0.00,,,0.00,WeatherCatV1.13B119,2013-02-04 17:08:00,
2013-02-04 11:13:00,25.7,19.2,29.96,North,355,2.0,7.0,76,0.00,,,0.00,WeatherCatV1.13B119,2013-02-04 17:13:00,
2013-02-04 11:18:00,25.7,18.9,29.95,NNW,339,2.0,6.0,75,0.00,,,0.00,WeatherCatV1.13B119,2013-02-04 17:18:00,
2013-02-04 11:23:00,25.7,19.2,29.95,NNW,339,1.0,4.0,76,0.00,,,0.00,WeatherCatV1.13B119,2013-02-04 17:23:00,
2013-02-04 11:28:00,26.0,19.2,29.95,NNW,338,3.0,4.0,75,0.00,,,0.00,WeatherCatV1.13B119,2013-02-04 17:28:00,
2013-02-04 11:33:00,26.0,19.2,29.95,NNW,338,0.0,5.0,75,0.00,,,0.00,WeatherCatV1.13B119,2013-02-04 17:33:00,
2013-02-04 11:38:00,26.1,19.3,29.95,NNW,338,3.0,6.0,75,0.00,,,0.00,WeatherCatV1.13B119,2013-02-04 17:38:00,
2013-02-04 11:43:00,26.3,19.2,29.95,NW,322,0.0,2.0,74,0.00,,,0.00,WeatherCatV1.13B119,2013-02-04 17:43:00,
2013-02-04 11:48:00,26.4,18.9,29.95,NNW,341,2.0,3.0,73,0.00,,,0.00,WeatherCatV1.13B119,2013-02-04 17:48:00,
2013-02-04 11:53:00,26.6,19.1,29.95,NNW,327,0.0,5.0,73,0.00,,,0.00,WeatherCatV1.13B119,2013-02-04 17:53:00,
2013-02-04 11:58:00,26.6,18.8,29.95,NNW,342,3.0,8.0,72,0.00,,,0.00,WeatherCatV1.13B119,2013-02-04 17:58:00,
2013-02-04 12:03:00,26.4,18.6,29.95,NNW,334,0.0,5.0,72,0.00,,,0.00,WeatherCatV1.13B119,2013-02-04 18:03:00,
2013-02-04 12:08:00,26.6,18.8,29.95,NNW,332,3.0,5.0,72,0.00,,,0.00,WeatherCatV1.13B119,2013-02-04 18:08:00,
2013-02-04 12:13:00,26.6,18.8,29.95,NNW,338,2.0,6.0,72,0.00,,,0.00,WeatherCatV1.13B119,2013-02-04 18:13:00,
2013-02-04 12:18:00,26.7,18.9,29.94,NNW,331,3.0,9.0,72,0.00,,,0.00,WeatherCatV1.13B119,2013-02-04 18:18:00,
2013-02-04 12:23:00,26.7,18.9,29.94,NNW,337,1.0,5.0,72,0.00,,,0.00,WeatherCatV1.13B119,2013-02-04 18:23:00,
2013-02-04 12:28:00,26.9,18.8,29.94,NNW,337,2.0,3.0,71,0.00,,,0.00,WeatherCatV1.13B119,2013-02-04 18:28:00,
2013-02-04 12:33:00,27.0,18.9,29.94,NW,326,1.0,4.0,71,0.00,,,0.00,WeatherCatV1.13B119,2013-02-04 18:33:00,
2013-02-04 12:38:00,27.2,19.1,29.94,West,279,1.0,3.0,71,0.00,,,0.00,WeatherCatV1.13B119,2013-02-04 18:38:00,
2013-02-04 12:43:00,27.5,19.7,29.94,NW,321,0.0,3.0,72,0.00,,,0.00,WeatherCatV1.13B119,2013-02-04 18:43:00,
2013-02-04 12:48:00,27.8,19.6,29.94,NNW,327,0.0,5.0,71,0.00,,,0.00,WeatherCatV1.13B119,2013-02-04 18:48:00,
2013-02-04 12:53:00,27.8,19.3,29.94,NNW,339,0.0,10.0,70,0.00,,,0.00,WeatherCatV1.13B119,2013-02-04 18:53:00,
2013-02-04 12:58:00,27.9,19.7,29.94,North,355,0.0,7.0,71,0.00,,,0.00,WeatherCatV1.13B119,2013-02-04 18:58:00,
2013-02-04 13:03:00,27.9,19.1,29.93,NNW,348,1.0,2.0,69,0.00,,,0.00,WeatherCatV1.13B119,2013-02-04 19:03:00,
2013-02-04 13:08:00,28.1,19.3,29.93,NNW,348,2.0,4.0,69,0.00,,,0.00,WeatherCatV1.13B119,2013-02-04 19:08:00,
2013-02-04 13:13:00,28.2,19.4,29.93,NNW,348,0.0,3.0,69,0.00,,,0.00,WeatherCatV1.13B119,2013-02-04 19:13:00,
2013-02-04 13:18:00,28.5,19.6,29.93,NE,45,4.0,4.0,69,0.00,,,0.00,WeatherCatV1.13B119,2013-02-04 19:18:00,
2013-02-04 13:23:00,28.1,18.9,29.93,NE,53,0.0,3.0,68,0.00,,,0.00,WeatherCatV1.13B119,2013-02-04 19:23:00,
2013-02-04 13:28:00,28.1,18.9,29.93,NNW,343,7.0,7.0,68,0.00,,,0.00,WeatherCatV1.13B119,2013-02-04 19:28:00,
2013-02-04 13:33:00,28.1,18.6,29.92,North,351,2.0,4.0,67,0.00,,,0.00,WeatherCatV1.13B119,2013-02-04 19:33:00,
2013-02-04 13:38:00,28.2,19.0,29.92,NNE,19,2.0,6.0,68,0.00,,,0.00,WeatherCatV1.13B119,2013-02-04 19:38:00,
2013-02-04 13:43:00,28.4,19.2,29.92,North,351,2.0,4.0,68,0.00,,,0.00,WeatherCatV1.13B119,2013-02-04 19:43:00,
2013-02-04 13:48:00,28.5,19.0,29.92,North,350,1.0,3.0,67,0.00,,,0.00,WeatherCatV1.13B119,2013-02-04 19:48:00,
2013-02-04 13:53:00,28.7,19.2,29.92,NNW,336,2.0,3.0,67,0.00,,,0.00,WeatherCatV1.13B119,2013-02-04 19:53:00,
2013-02-04 13:58:00,28.7,19.2,29.92,NNW,340,1.0,3.0,67,0.00,,,0.00,WeatherCatV1.13B119,2013-02-04 19:58:00,
2013-02-04 14:03:00,28.5,19.0,29.92,NNW,342,1.0,4.0,67,0.00,,,0.00,WeatherCatV1.13B119,2013-02-04 20:03:00,
2013-02-04 14:08:00,28.4,18.9,29.92,North,350,2.0,7.0,67,0.00,,,0.00,WeatherCatV1.13B119,2013-02-04 20:08:00,
2013-02-04 14:13:00,28.4,18.9,29.92,North,10,3.0,7.0,67,0.00,,,0.00,WeatherCatV1.13B119,2013-02-04 20:13:00,
2013-02-04 14:18:00,28.4,18.9,29.92,NNW,333,0.0,5.0,67,0.00,,,0.00,WeatherCatV1.13B119,2013-02-04 20:18:00,
2013-02-04 14:23:00,28.5,19.3,29.92,NNW,337,0.0,3.0,68,0.00,,,0.00,WeatherCatV1.13B119,2013-02-04 20:23:00,
2013-02-04 14:28:00,28.8,19.2,29.92,NNW,337,2.0,3.0,67,0.00,,,0.00,WeatherCatV1.13B119,2013-02-04 20:28:00,
2013-02-04 14:33:00,29.0,19.1,29.92,NNW,331,0.0,2.0,66,0.00,,,0.00,WeatherCatV1.13B119,2013-02-04 20:33:00,
2013-02-04 14:38:00,29.0,19.1,29.92,NNW,331,1.0,1.0,66,0.00,,,0.00,WeatherCatV1.13B119,2013-02-04 20:38:00,
2013-02-04 14:43:00,29.0,19.4,29.92,NW,326,0.0,3.0,67,0.00,,,0.00,WeatherCatV1.13B119,2013-02-04 20:43:00,
2013-02-04 14:48:00,29.0,19.1,29.92,NW,326,2.0,4.0,66,0.00,,,0.00,WeatherCatV1.13B119,2013-02-04 20:48:00,
2013-02-04 14:53:00,28.8,18.9,29.92,NW,326,3.0,4.0,66,0.00,,,0.00,WeatherCatV1.13B119,2013-02-04 20:53:00,
2013-02-04 14:58:00,28.7,18.8,29.92,NNW,327,0.0,1.0,66,0.00,,,0.00,WeatherCatV1.13B119,2013-02-04 20:58:00,
2013-02-04 15:03:00,28.4,18.9,29.92,NNW,327,0.0,1.0,67,0.00,,,0.00,WeatherCatV1.13B119,2013-02-04 21:03:00,
2013-02-04 15:08:00,28.7,19.2,29.92,NW,322,0.0,2.0,67,0.00,,,0.00,WeatherCatV1.13B119,2013-02-04 21:08:00,
2013-02-04 15:13:00,28.8,19.2,29.92,NW,323,0.0,0.0,67,0.00,,,0.00,WeatherCatV1.13B119,2013-02-04 21:13:00,
2013-02-04 15:18:00,29.0,19.1,29.91,NW,323,0.0,1.0,66,0.00,,,0.00,WeatherCatV1.13B119,2013-02-04 21:18:00,
2013-02-04 15:23:00,29.1,19.2,29.91,NW,322,0.0,0.0,66,0.00,,,0.00,WeatherCatV1.13B119,2013-02-04 21:23:00,
2013-02-04 15:28:00,29.3,19.4,29.91,NW,323,0.0,0.0,66,0.00,,,0.00,WeatherCatV1.13B119,2013-02-04 21:28:00,
2013-02-04 15:33:00,29.4,19.1,29.91,NW,319,0.0,2.0,65,0.00,,,0.00,WeatherCatV1.13B119,2013-02-04 21:33:00,
2013-02-04 15:38:00,29.3,19.0,29.91,NW,319,0.0,1.0,65,0.00,,,0.00,WeatherCatV1.13B119,2013-02-04 21:38:00,
2013-02-04 15:43:00,29.1,19.2,29.91,NW,319,0.0,0.0,66,0.00,,,0.00,WeatherCatV1.13B119,2013-02-04 21:43:00,
2013-02-04 15:48:00,29.1,19.2,29.91,NW,319,0.0,0.0,66,0.00,,,0.00,WeatherCatV1.13B119,2013-02-04 21:48:00,
2013-02-04 15:53:00,29.3,19.0,29.91,NW,320,0.0,1.0,65,0.00,,,0.00,WeatherCatV1.13B119,2013-02-04 21:53:00,
2013-02-04 15:58:00,29.1,19.2,29.91,NW,320,0.0,1.0,66,0.00,,,0.00,WeatherCatV1.13B119,2013-02-04 21:58:00,
2013-02-04 16:03:00,29.4,19.5,29.91,NW,319,0.0,0.0,66,0.00,,,0.00,WeatherCatV1.13B119,2013-02-04 22:03:00,
2013-02-04 16:08:00,29.5,19.2,29.91,NW,319,0.0,0.0,65,0.00,,,0.00,WeatherCatV1.13B119,2013-02-04 22:08:00,
2013-02-04 16:13:00,29.5,19.2,29.91,NW,320,0.0,1.0,65,0.00,,,0.00,WeatherCatV1.13B119,2013-02-04 22:13:00,
2013-02-04 16:18:00,29.4,19.5,29.91,NW,319,0.0,0.0,66,0.00,,,0.00,WeatherCatV1.13B119,2013-02-04 22:18:00,
2013-02-04 16:23:00,29.4,19.1,29.91,NW,320,1.0,2.0,65,0.00,,,0.00,WeatherCatV1.13B119,2013-02-04 22:23:00,
2013-02-04 16:28:00,29.3,19.0,29.91,NW,319,0.0,0.0,65,0.00,,,0.00,WeatherCatV1.13B119,2013-02-04 22:28:00,
2013-02-04 16:33:00,29.1,18.8,29.90,NW,319,0.0,0.0,65,0.00,,,0.00,WeatherCatV1.13B119,2013-02-04 22:33:00,
2013-02-04 16:38:00,29.1,19.2,29.90,NW,319,0.0,0.0,66,0.00,,,0.00,WeatherCatV1.13B119,2013-02-04 22:38:00,
2013-02-04 16:43:00,29.1,19.2,29.90,NW,319,0.0,2.0,66,0.00,,,0.00,WeatherCatV1.13B119,2013-02-04 22:43:00,
2013-02-04 16:48:00,29.1,19.2,29.89,NW,319,0.0,0.0,66,0.00,,,0.00,WeatherCatV1.13B119,2013-02-04 22:48:00,
2013-02-04 16:53:00,29.0,19.1,29.89,NW,319,0.0,0.0,66,0.00,,,0.00,WeatherCatV1.13B119,2013-02-04 22:53:00,
2013-02-04 16:58:00,28.7,18.8,29.89,NW,319,0.0,0.0,66,0.00,,,0.00,WeatherCatV1.13B119,2013-02-04 22:58:00,
2013-02-04 17:03:00,28.5,19.0,29.88,NW,319,0.0,0.0,67,0.00,,,0.00,WeatherCatV1.13B119,2013-02-04 23:03:00,
2013-02-04 17:08:00,28.4,18.9,29.88,NW,320,0.0,2.0,67,0.00,,,0.00,WeatherCatV1.13B119,2013-02-04 23:08:00,
2013-02-04 17:13:00,28.1,18.9,29.88,NW,320,0.0,1.0,68,0.00,,,0.00,WeatherCatV1.13B119,2013-02-04 23:13:00,
2013-02-04 17:18:00,27.9,19.1,29.89,NW,319,0.0,0.0,69,0.00,,,0.00,WeatherCatV1.13B119,2013-02-04 23:18:00,
2013-02-04 17:23:00,27.8,19.0,29.89,NW,320,0.0,1.0,69,0.00,,,0.00,WeatherCatV1.13B119,2013-02-04 23:23:00,
2013-02-04 17:28:00,27.6,19.1,29.89,NW,319,0.0,0.0,70,0.00,,,0.00,WeatherCatV1.13B119,2013-02-04 23:28:00,
2013-02-04 17:33:00,27.5,19.0,29.89,NW,319,0.0,0.0,70,0.00,,,0.00,WeatherCatV1.13B119,2013-02-04 23:33:00,
2013-02-04 17:38:00,27.3,19.2,29.89,NW,320,0.0,0.0,71,0.00,,,0.00,WeatherCatV1.13B119,2013-02-04 23:38:00,
2013-02-04 17:43:00,27.2,19.1,29.89,NW,319,0.0,1.0,71,0.00,,,0.00,WeatherCatV1.13B119,2013-02-04 23:43:00,
2013-02-04 17:48:00,27.2,19.1,29.89,NW,319,0.0,0.0,71,0.00,,,0.00,WeatherCatV1.13B119,2013-02-04 23:48:00,
2013-02-04 17:53:00,27.0,18.9,29.89,NW,319,0.0,0.0,71,0.00,,,0.00,WeatherCatV1.13B119,2013-02-04 23:53:00,
2013-02-04 17:58:00,27.0,19.2,29.89,NW,320,0.0,0.0,72,0.00,,,0.00,WeatherCatV1.13B119,2013-02-04 23:58:00,
2013-02-04 18:03:00,26.9,19.1,29.89,NW,319,0.0,0.0,72,0.00,,,0.00,WeatherCatV1.13B119,2013-02-05 00:03:00,
2013-02-04 18:08:00,26.9,19.1,29.89,NW,319,0.0,0.0,72,0.00,,,0.00,WeatherCatV1.13B119,2013-02-05 00:08:00,
2013-02-04 18:13:00,26.7,18.9,29.89,NW,319,0.0,0.0,72,0.00,,,0.00,WeatherCatV1.13B119,2013-02-05 00:13:00,
2013-02-04 18:18:00,26.7,18.9,29.89,NW,319,0.0,0.0,72,0.00,,,0.00,WeatherCatV1.13B119,2013-02-05 00:18:00,
2013-02-04 18:23:00,26.6,18.8,29.89,NW,319,0.0,0.0,72,0.00,,,0.00,WeatherCatV1.13B119,2013-02-05 00:23:00,
2013-02-04 18:28:00,26.6,18.8,29.89,NW,319,0.0,0.0,72,0.00,,,0.00,WeatherCatV1.13B119,2013-02-05 00:28:00,
2013-02-04 18:33:00,26.4,18.9,29.89,NW,319,0.0,0.0,73,0.00,,,0.00,WeatherCatV1.13B119,2013-02-05 00:33:00,
2013-02-04 18:38:00,26.3,18.8,29.89,NW,319,0.0,0.0,73,0.00,,,0.00,WeatherCatV1.13B119,2013-02-05 00:38:00,
2013-02-04 18:43:00,26.0,18.6,29.89,NW,320,0.0,0.0,73,0.00,,,0.00,WeatherCatV1.13B119,2013-02-05 00:43:00,
2013-02-04 18:48:00,25.8,18.7,29.89,NW,319,0.0,0.0,74,0.00,,,0.00,WeatherCatV1.13B119,2013-02-05 00:48:00,
2013-02-04 18:53:00,25.7,18.9,29.89,NW,319,0.0,0.0,75,0.00,,,0.00,WeatherCatV1.13B119,2013-02-05 00:53:00,
2013-02-04 18:58:00,25.4,18.6,29.89,NW,319,0.0,0.0,75,0.00,,,0.00,WeatherCatV1.13B119,2013-02-05 00:58:00,
2013-02-04 19:03:00,25.3,18.8,29.89,NW,319,0.0,0.0,76,0.00,,,0.00,WeatherCatV1.13B119,2013-02-05 01:03:00,
2013-02-04 19:08:00,25.3,18.8,29.89,NW,319,0.0,0.0,76,0.00,,,0.00,WeatherCatV1.13B119,2013-02-05 01:08:00,
2013-02-04 19:13:00,25.3,18.8,29.89,NW,319,0.0,2.0,76,0.00,,,0.00,WeatherCatV1.13B119,2013-02-05 01:13:00,
2013-02-04 19:18:00,25.3,19.1,29.89,NW,316,0.0,1.0,77,0.00,,,0.00,WeatherCatV1.13B119,2013-02-05 01:18:00,
2013-02-04 19:23:00,25.4,19.2,29.89,SW,234,0.0,4.0,77,0.00,,,0.00,WeatherCatV1.13B119,2013-02-05 01:23:00,
2013-02-04 19:28:00,25.6,19.1,29.89,SW,234,0.0,3.0,76,0.00,,,0.00,WeatherCatV1.13B119,2013-02-05 01:28:00,
2013-02-04 19:33:00,25.7,19.2,29.90,SW,232,2.0,4.0,76,0.00,,,0.00,WeatherCatV1.13B119,2013-02-05 01:33:00,
2013-02-04 19:38:00,25.7,19.2,29.90,SW,232,0.0,0.0,76,0.00,,,0.00,WeatherCatV1.13B119,2013-02-05 01:38:00,
2013-02-04 19:43:00,25.6,19.1,29.90,SW,232,0.0,2.0,76,0.00,,,0.00,WeatherCatV1.13B119,2013-02-05 01:43:00,
2013-02-04 19:48:00,25.6,19.1,29.91,SW,231,0.0,3.0,76,0.00,,,0.00,WeatherCatV1.13B119,2013-02-05 01:48:00,
2013-02-04 19:53:00,25.4,18.9,29.91,SW,229,1.0,5.0,76,0.00,,,0.00,WeatherCatV1.13B119,2013-02-05 01:53:00,
2013-02-04 19:58:00,25.4,19.2,29.91,SW,227,3.0,4.0,77,0.00,,,0.00,WeatherCatV1.13B119,2013-02-05 01:58:00,
2013-02-04 20:03:00,25.3,19.1,29.91,SW,226,2.0,4.0,77,0.00,,,0.00,WeatherCatV1.13B119,2013-02-05 02:03:00,
2013-02-04 20:08:00,25.1,18.9,29.91,SW,226,0.0,2.0,77,0.00,,,0.00,WeatherCatV1.13B119,2013-02-05 02:08:00,
2013-02-04 20:13:00,25.0,19.1,29.91,SW,225,0.0,1.0,78,0.00,,,0.00,WeatherCatV1.13B119,2013-02-05 02:13:00,
2013-02-04 20:18:00,24.8,18.9,29.90,SW,225,1.0,3.0,78,0.00,,,0.00,WeatherCatV1.13B119,2013-02-05 02:18:00,
2013-02-04 20:23:00,24.8,18.9,29.90,SW,225,0.0,3.0,78,0.00,,,0.00,WeatherCatV1.13B119,2013-02-05 02:23:00,
2013-02-04 20:28:00,24.7,19.1,29.90,SW,225,0.0,1.0,79,0.00,,,0.00,WeatherCatV1.13B119,2013-02-05 02:28:00,
2013-02-04 20:33:00,24.8,19.2,29.90,SW,225,3.0,3.0,79,0.00,,,0.00,WeatherCatV1.13B119,2013-02-05 02:33:00,
2013-02-04 20:38:00,24.8,19.5,29.90,SW,222,1.0,3.0,80,0.00,,,0.00,WeatherCatV1.13B119,2013-02-05 02:38:00,
2013-02-04 20:43:00,25.0,19.7,29.90,SW,221,0.0,3.0,80,0.00,,,0.00,WeatherCatV1.13B119,2013-02-05 02:43:00,
2013-02-04 20:48:00,25.1,19.8,29.89,South,174,5.0,5.0,80,0.00,,,0.00,WeatherCatV1.13B119,2013-02-05 02:48:00,
2013-02-04 20:53:00,25.3,20.0,29.89,South,173,0.0,4.0,80,0.00,,,0.00,WeatherCatV1.13B119,2013-02-05 02:53:00,
2013-02-04 20:58:00,25.4,20.4,29.89,South,173,1.0,4.0,81,0.00,,,0.00,WeatherCatV1.13B119,2013-02-05 02:58:00,
2013-02-04 21:03:00,25.6,20.6,29.88,South,174,2.0,5.0,81,0.00,,,0.00,WeatherCatV1.13B119,2013-02-05 03:03:00,
2013-02-04 21:08:00,25.7,20.7,29.88,South,174,0.0,7.0,81,0.00,,,0.00,WeatherCatV1.13B119,2013-02-05 03:08:00,
2013-02-04 21:13:00,25.8,20.8,29.88,South,173,4.0,5.0,81,0.00,,,0.00,WeatherCatV1.13B119,2013-02-05 03:13:00,
2013-02-04 21:18:00,25.8,20.8,29.87,South,174,4.0,7.0,81,0.00,,,0.00,WeatherCatV1.13B119,2013-02-05 03:18:00,
2013-02-04 21:23:00,25.8,21.1,29.87,South,175,3.0,6.0,82,0.00,,,0.00,WeatherCatV1.13B119,2013-02-05 03:23:00,
2013-02-04 21:28:00,25.7,21.0,29.87,South,183,5.0,10.0,82,0.00,,,0.00,WeatherCatV1.13B119,2013-02-05 03:28:00,
2013-02-04 21:33:00,25.6,20.9,29.86,South,184,4.0,8.0,82,0.00,,,0.00,WeatherCatV1.13B119,2013-02-05 03:33:00,
2013-02-04 21:38:00,25.6,21.2,29.86,South,180,7.0,11.0,83,0.00,,,0.00,WeatherCatV1.13B119,2013-02-05 03:38:00,
2013-02-04 21:43:00,25.6,21.2,29.86,South,176,3.0,7.0,83,0.00,,,0.00,WeatherCatV1.13B119,2013-02-05 03:43:00,
2013-02-04 21:48:00,25.4,21.0,29.86,South,174,5.0,5.0,83,0.00,,,0.00,WeatherCatV1.13B119,2013-02-05 03:48:00,
2013-02-04 21:53:00,25.4,21.3,29.86,South,178,9.0,12.0,84,0.00,,,0.00,WeatherCatV1.13B119,2013-02-05 03:53:00,
2013-02-04 21:58:00,25.4,21.3,29.86,South,171,6.0,10.0,84,0.00,,,0.00,WeatherCatV1.13B119,2013-02-05 03:58:00,
2013-02-04 22:03:00,25.6,21.5,29.86,SSW,201,5.0,6.0,84,0.00,,,0.00,WeatherCatV1.13B119,2013-02-05 04:03:00,
2013-02-04 22:08:00,25.6,21.5,29.86,South,184,5.0,8.0,84,0.00,,,0.00,WeatherCatV1.13B119,2013-02-05 04:08:00,
2013-02-04 22:13:00,25.6,21.5,29.86,SSW,192,5.0,9.0,84,0.00,,,0.00,WeatherCatV1.13B119,2013-02-05 04:13:00,
2013-02-04 22:18:00,25.6,21.7,29.86,SSW,196,4.0,11.0,85,0.00,,,0.00,WeatherCatV1.13B119,2013-02-05 04:18:00,
2013-02-04 22:23:00,25.7,21.8,29.86,South,178,3.0,7.0,85,0.00,,,0.00,WeatherCatV1.13B119,2013-02-05 04:23:00,
2013-02-04 22:28:00,25.7,21.8,29.86,SSW,194,2.0,6.0,85,0.00,,,0.00,WeatherCatV1.13B119,2013-02-05 04:28:00,
2013-02-04 22:33:00,25.7,21.8,29.84,South,170,0.0,7.0,85,0.00,,,0.00,WeatherCatV1.13B119,2013-02-05 04:33:00,
2013-02-04 22:38:00,25.7,21.8,29.84,South,180,2.0,5.0,85,0.00,,,0.00,WeatherCatV1.13B119,2013-02-05 04:38:00,
2013-02-04 22:43:00,25.7,21.8,29.84,South,176,3.0,3.0,85,0.00,,,0.00,WeatherCatV1.13B119,2013-02-05 04:43:00,
2013-02-04 22:48:00,25.7,21.8,29.84,South,176,1.0,3.0,85,0.00,,,0.00,WeatherCatV1.13B119,2013-02-05 04:48:00,
2013-02-04 22:53:00,25.8,21.9,29.84,South,174,0.0,5.0,85,0.00,,,0.00,WeatherCatV1.13B119,2013-02-05 04:53:00,
2013-02-04 22:58:00,25.8,21.9,29.84,South,174,0.0,2.0,85,0.00,,,0.00,WeatherCatV1.13B119,2013-02-05 04:58:00,
2013-02-04 23:00:00,25.8,21.9,29.84,South,174,1.0,1.0,85,0.00,,,0.00,WeatherCatV1.13B119,2013-02-05 05:00:00,
2013-02-04 23:05:00,26.0,22.1,29.84,South,174,2.0,5.0,85,0.00,,,0.00,WeatherCatV1.13B119,2013-02-05 05:05:00,
2013-02-04 23:10:00,26.0,22.1,29.84,South,174,2.0,3.0,85,0.00,,,0.00,WeatherCatV1.13B119,2013-02-05 05:10:00,
2013-02-04 23:15:00,26.0,22.1,29.83,South,184,0.0,5.0,85,0.00,,,0.00,WeatherCatV1.13B119,2013-02-05 05:15:00,
2013-02-04 23:20:00,26.1,22.2,29.83,South,183,0.0,6.0,85,0.00,,,0.00,WeatherCatV1.13B119,2013-02-05 05:20:00,
2013-02-04 23:25:00,26.1,22.2,29.83,SSE,165,2.0,10.0,85,0.00,,,0.00,WeatherCatV1.13B119,2013-02-05 05:25:00,
2013-02-04 23:30:00,26.1,22.2,29.83,SSE,166,0.0,4.0,85,0.00,,,0.00,WeatherCatV1.13B119,2013-02-05 05:30:00,
2013-02-04 23:35:00,26.1,22.2,29.83,SSE,166,3.0,4.0,85,0.00,,,0.00,WeatherCatV1.13B119,2013-02-05 05:35:00,
2013-02-04 23:40:00,26.1,22.5,29.83,SSE,168,3.0,3.0,86,0.00,,,0.00,WeatherCatV1.13B119,2013-02-05 05:40:00,
2013-02-04 23:45:00,26.1,22.5,29.82,SSE,167,2.0,4.0,86,0.00,,,0.00,WeatherCatV1.13B119,2013-02-05 05:45:00,
2013-02-04 23:50:00,26.1,22.5,29.82,SSE,168,0.0,4.0,86,0.00,,,0.00,WeatherCatV1.13B119,2013-02-05 05:50:00,
2013-02-04 23:55:00,26.1,22.5,29.82,SSE,168,2.0,3.0,86,0.00,,,0.00,WeatherCatV1.13B119,2013-02-05 05:55:00,